createdAt,value
2022-10-01T00:01:01.664Z,20.70
2022-10-01T00:03:29.803Z,24.83
2022-10-01T00:06:05.221Z,19.13
2022-10-01T00:08:32.991Z,24.67
2022-10-01T00:11:02.440Z,21.97
2022-10-01T00:13:30.455Z,23.87
2022-10-01T00:15:57.482Z,20.83
2022-10-01T00:18:24.275Z,19.70
2022-10-01T00:20:51.036Z,19.63
2022-10-01T00:23:19.733Z,19.03
2022-10-01T00:25:46.463Z,19.40
2022-10-01T00:28:13.257Z,23.47
2022-10-01T00:30:48.015Z,19.23
2022-10-01T00:33:14.708Z,22.17
2022-10-01T00:35:41.470Z,21.00
2022-10-01T00:38:08.382Z,19.70
2022-10-01T00:40:35.071Z,21.70
2022-10-01T00:43:01.770Z,20.90
2022-10-01T00:45:29.354Z,19.67
2022-10-01T00:47:59.298Z,19.40
2022-10-01T00:50:28.303Z,20.50
2022-10-01T00:52:59.584Z,20.73
2022-10-01T00:55:31.564Z,21.43
2022-10-01T00:57:58.990Z,18.03
2022-10-01T01:00:25.746Z,20.23
2022-10-01T01:02:52.735Z,19.47
2022-10-01T01:05:19.835Z,16.40
2022-10-01T01:07:50.096Z,21.80
2022-10-01T01:10:23.818Z,18.30
2022-10-01T01:13:06.241Z,19.37
2022-10-01T01:15:58.696Z,19.60
2022-10-01T01:18:50.550Z,18.60
2022-10-01T01:21:44.160Z,24.17
2022-10-01T01:24:37.956Z,23.70
2022-10-01T01:27:22.746Z,21.27
2022-10-01T01:29:55.400Z,20.80
2022-10-01T01:32:37.783Z,19.70
2022-10-01T01:35:08.276Z,25.03
2022-10-01T01:37:42.599Z,18.48
2022-10-01T01:40:12.453Z,20.23
2022-10-01T01:42:41.922Z,20.47
2022-10-01T01:45:13.692Z,25.13
2022-10-01T01:47:43.630Z,20.30
2022-10-01T01:50:11.625Z,24.60
2022-10-01T01:52:38.410Z,22.70
2022-10-01T01:55:08.419Z,21.80
2022-10-01T01:57:42.189Z,25.33
2022-10-01T02:00:11.503Z,24.85
2022-10-01T02:02:40.341Z,26.37
2022-10-01T02:05:11.356Z,27.60
2022-10-01T02:07:52.854Z,29.90
2022-10-01T02:10:41.419Z,28.88
2022-10-01T02:13:10.901Z,25.80
2022-10-01T02:15:46.142Z,24.97
2022-10-01T02:18:41.929Z,22.67
2022-10-01T02:21:23.654Z,29.20
2022-10-01T02:24:04.942Z,23.47
2022-10-01T02:26:32.555Z,24.17
2022-10-01T02:29:06.513Z,26.27
2022-10-01T02:31:34.383Z,27.53
2022-10-01T02:34:04.454Z,28.30
2022-10-01T02:36:33.630Z,28.80
2022-10-01T02:39:02.490Z,26.73
2022-10-01T02:41:37.187Z,23.53
2022-10-01T02:44:10.003Z,23.73
2022-10-01T02:46:50.108Z,24.60
2022-10-01T02:49:16.975Z,25.97
2022-10-01T02:51:58.539Z,23.33
2022-10-01T02:55:00.470Z,24.30
2022-10-01T02:57:27.807Z,23.93
2022-10-01T02:59:57.784Z,22.97
2022-10-01T03:02:27.813Z,24.77
2022-10-01T03:04:56.844Z,27.20
2022-10-01T03:07:25.155Z,25.80
2022-10-01T03:09:52.091Z,27.23
2022-10-01T03:12:18.945Z,24.07
2022-10-01T03:14:47.597Z,25.13
2022-10-01T03:17:15.336Z,25.53
2022-10-01T03:19:42.521Z,26.50
2022-10-01T03:22:11.623Z,22.67
2022-10-01T03:24:38.399Z,26.80
2022-10-01T03:27:05.211Z,24.13
2022-10-01T03:29:32.024Z,22.40
2022-10-01T03:31:58.714Z,26.57
2022-10-01T03:34:25.585Z,27.90
2022-10-01T03:36:52.793Z,26.23
2022-10-01T03:39:19.593Z,25.30
2022-10-01T03:41:46.371Z,24.53
2022-10-01T03:44:13.164Z,29.53
2022-10-01T03:46:39.890Z,28.37
2022-10-01T03:49:06.773Z,25.13
2022-10-01T03:51:37.573Z,27.90
2022-10-01T03:54:06.260Z,28.10
2022-10-01T03:56:33.495Z,23.03
2022-10-01T03:59:00.515Z,22.40
2022-10-01T04:01:28.043Z,23.97
2022-10-01T04:03:54.902Z,26.30
2022-10-01T04:06:21.664Z,24.53
2022-10-01T04:08:49.177Z,22.00
2022-10-01T04:11:15.919Z,22.67
2022-10-01T04:13:42.863Z,23.17
2022-10-01T04:16:10.229Z,26.87
2022-10-01T04:18:37.043Z,22.60
2022-10-01T04:21:04.959Z,21.43
2022-10-01T04:23:31.663Z,22.33
2022-10-01T04:26:05.180Z,23.33
2022-10-01T04:28:32.257Z,19.83
2022-10-01T04:31:18.365Z,23.10
2022-10-01T04:33:45.242Z,24.10
2022-10-01T04:36:12.287Z,22.63
2022-10-01T04:38:39.033Z,26.97
2022-10-01T04:41:05.915Z,24.97
2022-10-01T04:43:32.737Z,22.67
2022-10-01T04:45:59.538Z,20.20
2022-10-01T04:48:26.298Z,21.20
2022-10-01T04:50:53.047Z,20.53
2022-10-01T04:53:19.795Z,20.97
2022-10-01T04:55:46.690Z,18.23
2022-10-01T04:58:13.607Z,17.53
2022-10-01T05:00:40.444Z,19.13
2022-10-01T05:03:07.565Z,20.60
2022-10-01T05:05:35.095Z,20.50
2022-10-01T05:08:02.272Z,19.23
2022-10-01T05:10:29.291Z,19.20
2022-10-01T05:12:56.795Z,19.80
2022-10-01T05:15:23.549Z,17.00
2022-10-01T05:17:50.268Z,18.70
2022-10-01T05:20:22.423Z,19.00
2022-10-01T05:22:49.585Z,18.23
2022-10-01T05:25:17.682Z,20.03
2022-10-01T05:27:44.908Z,18.50
2022-10-01T05:30:13.140Z,17.80
2022-10-01T05:32:40.305Z,20.53
2022-10-01T05:35:08.457Z,19.47
2022-10-01T05:37:36.589Z,37.07
2022-10-01T05:40:03.943Z,20.23
2022-10-01T05:42:30.640Z,19.27
2022-10-01T05:44:57.343Z,20.27
2022-10-01T05:47:24.047Z,19.93
2022-10-01T05:49:50.801Z,17.80
2022-10-01T05:52:17.579Z,21.70
2022-10-01T05:54:44.366Z,17.37
2022-10-01T05:57:11.264Z,16.87
2022-10-01T05:59:38.009Z,18.60
2022-10-01T06:02:05.192Z,15.33
2022-10-01T06:04:32.079Z,26.00
2022-10-01T06:06:58.955Z,21.50
2022-10-01T06:09:25.990Z,18.47
2022-10-01T06:11:52.675Z,15.87
2022-10-01T06:14:19.444Z,16.00
2022-10-01T06:16:47.025Z,19.70
2022-10-01T06:19:14.011Z,16.13
2022-10-01T06:21:40.870Z,20.67
2022-10-01T06:24:07.663Z,17.10
2022-10-01T06:26:34.488Z,16.47
2022-10-01T06:29:02.832Z,17.23
2022-10-01T06:31:29.918Z,21.60
2022-10-01T06:33:56.711Z,19.77
2022-10-01T06:36:23.412Z,17.90
2022-10-01T06:38:50.451Z,19.23
2022-10-01T06:41:17.219Z,17.50
2022-10-01T06:43:45.008Z,20.60
2022-10-01T06:46:11.925Z,17.33
2022-10-01T06:48:38.925Z,17.10
2022-10-01T06:51:06.076Z,16.90
2022-10-01T06:53:33.011Z,16.67
2022-10-01T06:56:06.572Z,17.27
2022-10-01T06:58:34.219Z,18.37
2022-10-01T07:01:03.185Z,17.20
2022-10-01T07:03:31.268Z,16.80
2022-10-01T07:06:03.389Z,14.53
2022-10-01T07:08:30.248Z,16.80
2022-10-01T07:11:02.816Z,16.50
2022-10-01T07:13:30.438Z,18.37
2022-10-01T07:15:57.422Z,15.33
2022-10-01T07:18:24.325Z,18.10
2022-10-01T07:20:51.575Z,15.80
2022-10-01T07:23:18.469Z,15.93
2022-10-01T07:25:45.872Z,16.10
2022-10-01T07:28:19.806Z,15.73
2022-10-01T07:31:06.748Z,17.83
2022-10-01T07:33:33.546Z,16.87
2022-10-01T07:36:02.585Z,14.43
2022-10-01T07:38:29.971Z,15.17
2022-10-01T07:40:58.789Z,13.33
2022-10-01T07:43:25.798Z,14.80
2022-10-01T07:45:55.166Z,14.80
2022-10-01T07:48:22.239Z,13.47
2022-10-01T07:50:49.614Z,12.53
2022-10-01T07:53:17.138Z,12.87
2022-10-01T07:55:44.884Z,14.73
2022-10-01T07:58:12.366Z,13.23
2022-10-01T08:00:39.948Z,11.57
2022-10-01T08:03:06.984Z,14.40
2022-10-01T08:05:35.905Z,14.40
2022-10-01T08:08:05.468Z,15.00
2022-10-01T08:10:35.460Z,12.30
2022-10-01T08:13:14.932Z,12.07
2022-10-01T08:15:43.354Z,9.60
2022-10-01T08:18:11.352Z,10.30
2022-10-01T08:20:42.180Z,9.00
2022-10-01T08:23:12.599Z,10.03
2022-10-01T08:25:39.911Z,8.60
2022-10-01T08:28:07.944Z,8.60
2022-10-01T08:30:37.326Z,10.20
2022-10-01T08:33:04.219Z,7.17
2022-10-01T08:35:30.914Z,6.77
2022-10-01T08:38:05.096Z,7.03
2022-10-01T08:40:38.149Z,5.47
2022-10-01T08:43:07.571Z,5.87
2022-10-01T08:45:40.584Z,4.93
2022-10-01T08:48:49.490Z,4.33
2022-10-01T08:51:39.974Z,6.33
2022-10-01T08:54:28.935Z,4.50
2022-10-01T08:56:59.637Z,4.80
2022-10-01T08:59:29.118Z,4.60
2022-10-01T09:01:56.832Z,4.00
2022-10-01T09:04:24.214Z,5.30
2022-10-01T09:06:57.740Z,3.53
2022-10-01T09:10:04.519Z,3.33
2022-10-01T09:12:42.540Z,4.73
2022-10-01T09:15:24.259Z,5.30
2022-10-01T09:18:35.504Z,5.30
2022-10-01T09:21:07.474Z,4.00
2022-10-01T09:23:47.323Z,3.73
2022-10-01T09:26:14.227Z,3.30
2022-10-01T09:28:41.608Z,4.13
2022-10-01T09:31:37.409Z,4.47
2022-10-01T09:34:33.980Z,3.40
2022-10-01T09:37:27.928Z,4.00
2022-10-01T09:40:29.570Z,5.20
2022-10-01T09:42:56.573Z,6.53
2022-10-01T09:45:24.230Z,4.50
2022-10-01T09:47:54.352Z,5.53
2022-10-01T09:50:43.163Z,3.83
2022-10-01T09:53:20.620Z,5.03
2022-10-01T09:55:54.153Z,3.53
2022-10-01T09:58:24.545Z,4.40
2022-10-01T10:00:53.759Z,3.03
2022-10-01T10:03:31.542Z,5.10
2022-10-01T10:06:02.378Z,3.40
2022-10-01T10:08:30.551Z,5.47
2022-10-01T10:11:02.856Z,3.33
2022-10-01T10:13:34.839Z,4.47
2022-10-01T10:16:10.589Z,3.60
2022-10-01T10:18:40.073Z,3.40
2022-10-01T10:21:16.219Z,3.13
2022-10-01T10:23:54.735Z,3.60
2022-10-01T10:26:32.636Z,3.97
2022-10-01T10:29:02.202Z,3.70
2022-10-01T10:31:37.795Z,3.70
2022-10-01T10:34:40.682Z,3.60
2022-10-01T10:37:17.203Z,3.57
2022-10-01T10:39:51.068Z,3.53
2022-10-01T10:42:23.047Z,3.20
2022-10-01T10:44:53.442Z,3.23
2022-10-01T10:47:22.170Z,3.30
2022-10-01T10:49:52.640Z,3.30
2022-10-01T10:52:29.857Z,3.17
2022-10-01T10:54:58.903Z,3.70
2022-10-01T10:57:31.277Z,3.87
2022-10-01T10:59:59.575Z,4.10
2022-10-01T11:02:31.497Z,5.27
2022-10-01T11:05:02.519Z,3.53
2022-10-01T11:07:30.073Z,3.43
2022-10-01T11:09:56.733Z,2.60
2022-10-01T11:12:44.617Z,3.27
2022-10-01T11:15:37.615Z,3.10
2022-10-01T11:18:23.397Z,3.13
2022-10-01T11:20:53.910Z,2.53
2022-10-01T11:23:42.224Z,2.83
2022-10-01T11:26:28.482Z,2.23
2022-10-01T11:29:23.331Z,3.07
2022-10-01T11:31:57.859Z,2.90
2022-10-01T11:34:50.388Z,3.53
2022-10-01T11:37:54.478Z,3.07
2022-10-01T11:40:49.374Z,3.10
2022-10-01T11:43:27.180Z,3.87
2022-10-01T11:46:27.212Z,3.83
2022-10-01T11:49:02.211Z,4.57
2022-10-01T11:51:41.521Z,3.20
2022-10-01T11:54:14.833Z,3.53
2022-10-01T11:57:05.910Z,3.70
2022-10-01T11:59:45.195Z,3.50
2022-10-01T12:02:34.617Z,3.90
2022-10-01T12:05:13.353Z,3.60
2022-10-01T12:07:55.363Z,8.93
2022-10-01T12:10:45.352Z,3.00
2022-10-01T12:13:22.445Z,2.83
2022-10-01T12:16:06.964Z,3.00
2022-10-01T12:18:48.904Z,3.20
2022-10-01T12:21:34.316Z,3.00
2022-10-01T12:24:12.078Z,3.03
2022-10-01T12:27:02.288Z,2.90
2022-10-01T12:29:40.909Z,2.60
2022-10-01T12:32:38.010Z,3.07
2022-10-01T12:35:13.605Z,3.10
2022-10-01T12:38:08.207Z,3.60
2022-10-01T12:40:50.968Z,6.50
2022-10-01T12:43:39.115Z,3.50
2022-10-01T12:46:05.835Z,3.57
2022-10-01T12:48:56.750Z,3.10
2022-10-01T12:51:45.558Z,3.30
2022-10-01T12:54:41.931Z,2.33
2022-10-01T12:57:11.717Z,2.73
2022-10-01T13:00:03.230Z,4.23
2022-10-01T13:03:02.943Z,3.50
2022-10-01T13:06:05.510Z,2.50
2022-10-01T13:09:09.181Z,2.53
2022-10-01T13:12:22.007Z,3.40
2022-10-01T13:14:50.162Z,2.80
2022-10-01T13:17:35.025Z,2.93
2022-10-01T13:20:10.648Z,11.07
2022-10-01T13:23:24.109Z,4.37
2022-10-01T13:25:58.688Z,3.40
2022-10-01T13:29:13.422Z,2.90
2022-10-01T13:32:04.616Z,2.73
2022-10-01T13:34:36.514Z,2.87
2022-10-01T13:37:13.609Z,2.40
2022-10-01T13:39:43.590Z,1.97
2022-10-01T13:42:25.222Z,3.10
2022-10-01T13:45:01.359Z,2.40
2022-10-01T13:47:28.619Z,4.83
2022-10-01T13:50:05.391Z,6.70
2022-10-01T13:52:32.955Z,1.90
2022-10-01T13:55:01.850Z,1.33
2022-10-01T13:57:37.771Z,2.07
2022-10-01T14:00:13.255Z,2.20
2022-10-01T14:02:43.024Z,2.43
2022-10-01T14:05:27.029Z,2.33
2022-10-01T14:08:22.118Z,2.57
2022-10-01T14:11:16.208Z,1.90
2022-10-01T14:14:07.847Z,2.20
2022-10-01T14:16:46.517Z,5.60
2022-10-01T14:19:25.290Z,2.30
2022-10-01T14:22:16.129Z,2.23
2022-10-01T14:24:48.762Z,2.00
2022-10-01T14:28:07.771Z,1.47
2022-10-01T14:31:00.494Z,11.93
2022-10-01T14:34:06.742Z,4.43
2022-10-01T14:36:45.184Z,1.77
2022-10-01T14:39:16.445Z,1.80
2022-10-01T14:41:44.249Z,3.43
2022-10-01T14:44:29.749Z,1.93
2022-10-01T14:46:58.914Z,2.40
2022-10-01T14:49:28.896Z,2.40
2022-10-01T14:52:16.845Z,2.97
2022-10-01T14:54:57.884Z,2.43
2022-10-01T14:57:34.737Z,2.17
2022-10-01T15:00:08.918Z,1.60
2022-10-01T15:03:01.628Z,2.23
2022-10-01T15:05:30.722Z,35.57
2022-10-01T15:07:57.972Z,2.67
2022-10-01T15:10:27.578Z,2.17
2022-10-01T15:12:55.647Z,2.80
2022-10-01T15:15:25.766Z,2.40
2022-10-01T15:17:52.965Z,1.93
2022-10-01T15:20:19.944Z,4.10
2022-10-01T15:22:49.477Z,3.07
2022-10-01T15:25:22.348Z,2.10
2022-10-01T15:27:49.911Z,1.27
2022-10-01T15:30:18.389Z,1.97
2022-10-01T15:32:48.321Z,1.60
2022-10-01T15:35:19.727Z,1.70
2022-10-01T15:37:50.263Z,10.43
2022-10-01T15:40:25.104Z,7.37
2022-10-01T15:43:23.774Z,2.17
2022-10-01T15:46:20.227Z,2.60
2022-10-01T15:48:47.345Z,1.50
2022-10-01T15:51:25.970Z,1.53
2022-10-01T15:53:53.961Z,2.07
2022-10-01T15:56:23.844Z,1.60
2022-10-01T15:59:02.295Z,2.03
2022-10-01T16:01:38.353Z,1.23
2022-10-01T16:04:11.667Z,1.70
2022-10-01T16:06:42.707Z,3.17
2022-10-01T16:09:23.436Z,3.07
2022-10-01T16:11:58.966Z,2.00
2022-10-01T16:14:34.651Z,1.47
2022-10-01T16:17:16.706Z,1.50
2022-10-01T16:19:52.227Z,1.87
2022-10-01T16:22:35.264Z,1.53
2022-10-01T16:25:07.473Z,3.30
2022-10-01T16:27:50.523Z,1.97
2022-10-01T16:30:26.989Z,10.03
2022-10-01T16:33:05.135Z,4.83
2022-10-01T16:35:35.665Z,2.07
2022-10-01T16:38:06.758Z,2.27
2022-10-01T16:40:39.091Z,3.30
2022-10-01T16:43:07.605Z,2.07
2022-10-01T16:45:40.428Z,1.57
2022-10-01T16:48:17.335Z,2.83
2022-10-01T16:50:46.461Z,1.40
2022-10-01T16:53:15.587Z,1.40
2022-10-01T16:55:43.084Z,1.50
2022-10-01T16:58:10.339Z,1.73
2022-10-01T17:00:38.144Z,1.57
2022-10-01T17:03:09.032Z,2.13
2022-10-01T17:05:37.523Z,1.20
2022-10-01T17:08:10.958Z,1.30
2022-10-01T17:10:47.618Z,1.80
2022-10-01T17:13:15.655Z,3.17
2022-10-01T17:15:43.186Z,4.30
2022-10-01T17:18:10.063Z,1.63
2022-10-01T17:20:40.246Z,1.13
2022-10-01T17:23:07.924Z,3.13
2022-10-01T17:25:38.264Z,1.90
2022-10-01T17:28:08.300Z,1.20
2022-10-01T17:30:35.343Z,2.00
2022-10-01T17:33:02.196Z,1.43
2022-10-01T17:35:30.467Z,2.80
2022-10-01T17:37:58.298Z,2.10
2022-10-01T17:40:25.175Z,1.83
2022-10-01T17:42:52.019Z,1.63
2022-10-01T17:45:18.911Z,2.63
2022-10-01T17:47:47.552Z,2.90
2022-10-01T17:50:15.831Z,1.40
2022-10-01T17:52:42.798Z,2.87
2022-10-01T17:55:12.154Z,1.80
2022-10-01T17:57:38.938Z,2.17
2022-10-01T18:00:06.540Z,1.70
2022-10-01T18:02:42.054Z,1.87
2022-10-01T18:05:14.432Z,1.53
2022-10-01T18:07:41.974Z,1.50
2022-10-01T18:10:11.321Z,1.30
2022-10-01T18:12:38.158Z,3.30
2022-10-01T18:15:05.528Z,1.70
2022-10-01T18:17:33.275Z,1.73
2022-10-01T18:20:00.341Z,1.73
2022-10-01T18:22:28.226Z,1.97
2022-10-01T18:24:55.462Z,1.70
2022-10-01T18:27:22.357Z,1.83
2022-10-01T18:29:49.320Z,1.77
2022-10-01T18:32:17.365Z,2.00
2022-10-01T18:35:01.492Z,2.70
2022-10-01T18:37:54.068Z,2.03
2022-10-01T18:40:28.948Z,2.70
2022-10-01T18:43:08.016Z,2.23
2022-10-01T18:46:03.243Z,1.63
2022-10-01T18:48:57.733Z,2.07
2022-10-01T18:51:33.405Z,2.10
2022-10-01T18:54:28.223Z,2.83
2022-10-01T18:57:06.925Z,1.80
2022-10-01T18:59:42.594Z,2.10
2022-10-01T19:02:44.940Z,2.27
2022-10-01T19:05:42.894Z,3.57
2022-10-01T19:08:15.249Z,1.90
2022-10-01T19:10:54.015Z,1.57
2022-10-01T19:13:27.855Z,1.40
2022-10-01T19:16:28.811Z,1.30
2022-10-01T19:19:17.560Z,1.60
2022-10-01T19:21:49.277Z,1.17
2022-10-01T19:24:37.417Z,1.93
2022-10-01T19:27:19.265Z,1.70
2022-10-01T19:29:55.064Z,2.40
2022-10-01T19:32:27.213Z,1.53
2022-10-01T19:35:15.889Z,1.40
2022-10-01T19:37:48.200Z,1.20
2022-10-01T19:40:21.786Z,2.17
2022-10-01T19:43:16.295Z,1.47
2022-10-01T19:46:01.929Z,3.47
2022-10-01T19:48:46.188Z,1.30
2022-10-01T19:51:18.456Z,1.50
2022-10-01T19:53:49.515Z,1.70
2022-10-01T19:56:23.027Z,2.20
2022-10-01T19:58:49.924Z,1.83
2022-10-01T20:01:21.488Z,1.17
2022-10-01T20:04:05.308Z,2.20
2022-10-01T20:06:42.776Z,2.60
2022-10-01T20:09:15.165Z,1.40
2022-10-01T20:11:59.021Z,1.43
2022-10-01T20:15:06.527Z,1.63
2022-10-01T20:17:39.423Z,2.07
2022-10-01T20:20:18.914Z,1.60
2022-10-01T20:23:20.819Z,1.70
2022-10-01T20:25:58.645Z,1.40
2022-10-01T20:28:38.142Z,3.40
2022-10-01T20:31:29.540Z,2.03
2022-10-01T20:33:56.328Z,3.57
2022-10-01T20:36:44.310Z,2.70
2022-10-01T20:39:17.443Z,1.67
2022-10-01T20:41:48.293Z,2.30
2022-10-01T20:44:21.954Z,1.40
2022-10-01T20:46:55.954Z,1.23
2022-10-01T20:50:09.701Z,1.67
2022-10-01T20:53:04.479Z,1.20
2022-10-01T20:55:41.608Z,1.40
2022-10-01T20:58:15.354Z,1.90
2022-10-01T21:00:45.814Z,2.43
2022-10-01T21:03:41.672Z,1.27
2022-10-01T21:06:13.936Z,5.50
2022-10-01T21:08:50.109Z,1.60
2022-10-01T21:11:40.198Z,2.20
2022-10-01T21:14:37.415Z,2.60
2022-10-01T21:17:19.372Z,1.03
2022-10-01T21:20:04.307Z,1.20
2022-10-01T21:22:45.795Z,1.00
2022-10-01T21:25:19.475Z,2.63
2022-10-01T21:27:52.349Z,1.50
2022-10-01T21:30:21.313Z,0.90
2022-10-01T21:33:02.071Z,1.10
2022-10-01T21:36:07.859Z,1.33
2022-10-01T21:38:34.524Z,2.10
2022-10-01T21:41:36.241Z,1.17
2022-10-01T21:44:11.048Z,1.20
2022-10-01T21:47:05.547Z,1.10
2022-10-01T21:49:56.152Z,2.03
2022-10-01T21:53:05.199Z,1.13
2022-10-01T21:55:46.519Z,1.17
2022-10-01T21:58:35.440Z,1.30
2022-10-01T22:01:26.894Z,2.03
2022-10-01T22:04:02.817Z,1.07
2022-10-01T22:06:58.635Z,1.77
2022-10-01T22:09:34.967Z,3.73
2022-10-01T22:12:06.013Z,1.23
2022-10-01T22:14:33.091Z,5.00
2022-10-01T22:17:15.897Z,1.23
2022-10-01T22:19:49.233Z,1.40
2022-10-01T22:22:23.947Z,1.30
2022-10-01T22:24:53.272Z,1.50
2022-10-01T22:27:37.934Z,1.07
2022-10-01T22:30:10.764Z,0.77
2022-10-01T22:33:08.188Z,3.37
2022-10-01T22:35:52.562Z,1.40
2022-10-01T22:38:38.088Z,2.03
2022-10-01T22:41:11.328Z,2.23
2022-10-01T22:43:40.405Z,3.10
2022-10-01T22:46:30.412Z,2.13
2022-10-01T22:49:00.046Z,1.37
2022-10-01T22:51:57.620Z,2.70
2022-10-01T22:54:31.446Z,1.40
2022-10-01T22:57:06.419Z,36.60
2022-10-01T22:59:48.111Z,7.90
2022-10-01T23:02:27.518Z,1.90
2022-10-01T23:05:25.414Z,1.70
2022-10-01T23:07:52.079Z,3.13
2022-10-01T23:10:48.363Z,2.10
2022-10-01T23:13:45.718Z,1.03
2022-10-01T23:16:21.466Z,4.17
2022-10-01T23:18:57.028Z,1.20
2022-10-01T23:21:57.727Z,1.20
2022-10-01T23:24:59.561Z,1.67
2022-10-01T23:27:30.266Z,1.07
2022-10-01T23:30:17.328Z,1.87
2022-10-01T23:33:16.233Z,2.03
2022-10-01T23:36:18.341Z,2.10
2022-10-01T23:39:23.852Z,3.40
2022-10-01T23:42:08.407Z,0.73
2022-10-01T23:44:35.075Z,2.00
2022-10-01T23:47:08.489Z,3.40
2022-10-01T23:49:40.045Z,1.60
2022-10-01T23:52:24.949Z,2.33
2022-10-01T23:55:21.999Z,3.17
2022-10-01T23:57:53.797Z,2.27
